createdAt,value
2022-09-03T00:00:08.668Z,62.00
2022-09-03T00:02:39.886Z,62.10
2022-09-03T00:05:11.611Z,62.10
2022-09-03T00:07:43.559Z,62.10
2022-09-03T00:10:16.766Z,62.20
2022-09-03T00:12:45.706Z,62.30
2022-09-03T00:15:15.212Z,62.30
2022-09-03T00:17:45.417Z,62.30
2022-09-03T00:20:14.692Z,62.40
2022-09-03T00:22:44.643Z,62.40
2022-09-03T00:25:15.938Z,62.30
2022-09-03T00:27:44.950Z,62.40
2022-09-03T00:30:16.934Z,62.60
2022-09-03T00:32:47.759Z,62.60
2022-09-03T00:35:20.976Z,62.80
2022-09-03T00:37:49.187Z,62.90
2022-09-03T00:40:24.936Z,62.90
2022-09-03T00:42:58.107Z,63.10
2022-09-03T00:45:33.871Z,63.00
2022-09-03T00:48:07.889Z,63.20
2022-09-03T00:50:42.410Z,63.30
2022-09-03T00:53:14.315Z,63.30
2022-09-03T00:55:47.988Z,63.40
2022-09-03T00:58:22.428Z,63.60
2022-09-03T01:00:52.821Z,63.90
2022-09-03T01:03:25.057Z,63.80
2022-09-03T01:06:03.457Z,63.80
2022-09-03T01:08:41.793Z,63.80
2022-09-03T01:11:20.392Z,63.90
2022-09-03T01:13:51.421Z,63.80
2022-09-03T01:16:25.872Z,63.70
2022-09-03T01:18:56.773Z,63.50
2022-09-03T01:21:42.344Z,63.20
2022-09-03T01:24:28.847Z,63.20
2022-09-03T01:27:05.726Z,63.20
2022-09-03T01:29:39.789Z,62.90
2022-09-03T01:32:13.880Z,63.10
2022-09-03T01:34:46.462Z,63.20
2022-09-03T01:37:19.286Z,63.20
2022-09-03T01:39:51.144Z,63.10
2022-09-03T01:42:24.384Z,63.10
2022-09-03T01:45:08.279Z,63.30
2022-09-03T01:47:51.694Z,63.30
2022-09-03T01:50:27.181Z,63.20
2022-09-03T01:52:57.262Z,63.10
2022-09-03T01:55:31.037Z,63.00
2022-09-03T01:58:01.449Z,63.10
2022-09-03T02:00:32.150Z,63.20
2022-09-03T02:03:04.153Z,63.40
2022-09-03T02:05:32.164Z,63.50
2022-09-03T02:08:01.353Z,63.40
2022-09-03T02:10:32.310Z,63.60
2022-09-03T02:13:02.951Z,63.50
2022-09-03T02:15:34.618Z,63.40
2022-09-03T02:18:03.782Z,63.30
2022-09-03T02:20:32.085Z,63.20
2022-09-03T02:23:00.064Z,63.20
2022-09-03T02:25:31.225Z,63.30
2022-09-03T02:28:00.227Z,63.30
2022-09-03T02:30:28.104Z,63.20
2022-09-03T02:32:57.448Z,63.30
2022-09-03T02:35:25.367Z,63.20
2022-09-03T02:37:53.266Z,63.20
2022-09-03T02:40:21.190Z,63.10
2022-09-03T02:42:49.271Z,63.10
2022-09-03T02:45:24.920Z,63.10
2022-09-03T02:47:55.484Z,63.20
2022-09-03T02:50:25.246Z,63.20
2022-09-03T02:52:53.215Z,63.20
2022-09-03T02:55:21.132Z,63.10
2022-09-03T02:57:49.056Z,63.00
2022-09-03T03:00:17.069Z,63.20
2022-09-03T03:02:47.097Z,63.10
2022-09-03T03:05:19.542Z,63.30
2022-09-03T03:07:48.755Z,63.20
2022-09-03T03:10:17.594Z,63.20
2022-09-03T03:12:45.619Z,63.40
2022-09-03T03:15:13.556Z,63.40
2022-09-03T03:17:41.403Z,63.40
2022-09-03T03:20:09.956Z,63.30
2022-09-03T03:22:37.878Z,63.40
2022-09-03T03:25:07.775Z,63.40
2022-09-03T03:27:36.001Z,63.50
2022-09-03T03:30:05.649Z,63.40
2022-09-03T03:32:33.564Z,63.40
2022-09-03T03:35:01.542Z,63.40
2022-09-03T03:37:29.429Z,63.30
2022-09-03T03:39:57.345Z,63.30
2022-09-03T03:42:26.648Z,63.50
2022-09-03T03:44:54.456Z,63.50
2022-09-03T03:47:22.314Z,63.50
2022-09-03T03:49:50.309Z,63.60
2022-09-03T03:52:18.276Z,63.80
2022-09-03T03:54:46.242Z,63.80
2022-09-03T03:57:14.241Z,63.90
2022-09-03T03:59:43.496Z,64.00
2022-09-03T04:02:11.430Z,63.90
2022-09-03T04:04:39.351Z,64.00
2022-09-03T04:07:07.594Z,64.10
2022-09-03T04:09:35.624Z,64.10
2022-09-03T04:12:05.428Z,64.10
2022-09-03T04:14:33.387Z,64.10
2022-09-03T04:17:03.046Z,64.30
2022-09-03T04:19:31.238Z,64.30
2022-09-03T04:21:59.079Z,64.50
2022-09-03T04:24:27.455Z,64.50
2022-09-03T04:26:55.320Z,64.80
2022-09-03T04:29:23.283Z,64.90
2022-09-03T04:32:08.554Z,65.00
2022-09-03T04:34:37.820Z,65.10
2022-09-03T04:37:05.833Z,65.10
2022-09-03T04:39:33.876Z,65.30
2022-09-03T04:42:01.720Z,65.50
2022-09-03T04:44:29.675Z,65.70
2022-09-03T04:46:57.623Z,66.00
2022-09-03T04:49:25.953Z,66.30
2022-09-03T04:51:55.148Z,66.60
2022-09-03T04:54:23.019Z,66.70
2022-09-03T04:56:55.932Z,66.90
2022-09-03T04:59:23.793Z,67.10
2022-09-03T05:01:52.599Z,67.20
2022-09-03T05:04:20.707Z,67.40
2022-09-03T05:06:48.633Z,67.40
2022-09-03T05:09:17.930Z,67.30
2022-09-03T05:11:46.773Z,67.50
2022-09-03T05:14:14.813Z,67.40
2022-09-03T05:16:42.842Z,67.50
2022-09-03T05:19:20.560Z,67.30
2022-09-03T05:21:48.443Z,67.30
2022-09-03T05:24:16.314Z,67.20
2022-09-03T05:26:45.611Z,67.30
2022-09-03T05:29:14.418Z,67.20
2022-09-03T05:31:42.578Z,67.20
2022-09-03T05:34:16.587Z,67.10
2022-09-03T05:36:49.054Z,67.10
2022-09-03T05:39:16.985Z,67.10
2022-09-03T05:41:46.343Z,67.00
2022-09-03T05:44:14.556Z,66.80
2022-09-03T05:46:42.527Z,67.00
2022-09-03T05:49:12.485Z,67.00
2022-09-03T05:51:40.490Z,66.90
2022-09-03T05:54:09.158Z,67.10
2022-09-03T05:56:39.726Z,67.00
2022-09-03T05:59:10.144Z,66.80
2022-09-03T06:01:38.896Z,66.70
2022-09-03T06:04:07.467Z,66.60
2022-09-03T06:06:36.309Z,66.60
2022-09-03T06:09:05.189Z,66.50
2022-09-03T06:11:34.762Z,66.60
2022-09-03T06:14:05.894Z,66.70
2022-09-03T06:16:36.517Z,67.20
2022-09-03T06:19:06.078Z,67.50
2022-09-03T06:21:33.956Z,68.00
2022-09-03T06:24:01.824Z,69.20
2022-09-03T06:26:31.018Z,69.20
2022-09-03T06:28:59.896Z,69.10
2022-09-03T06:31:28.249Z,69.40
2022-09-03T06:34:02.002Z,69.70
2022-09-03T06:36:31.990Z,70.20
2022-09-03T06:39:00.298Z,70.30
2022-09-03T06:41:29.239Z,71.40
2022-09-03T06:44:03.436Z,73.00
2022-09-03T06:46:31.976Z,73.90
2022-09-03T06:49:01.465Z,75.00
2022-09-03T06:51:30.704Z,75.90
2022-09-03T06:54:00.877Z,77.10
2022-09-03T06:56:28.727Z,77.30
2022-09-03T06:58:57.518Z,76.60
2022-09-03T07:01:26.285Z,76.90
2022-09-03T07:03:56.355Z,78.00
2022-09-03T07:06:27.176Z,78.00
2022-09-03T07:08:55.605Z,77.30
2022-09-03T07:11:26.204Z,77.50
2022-09-03T07:13:55.851Z,77.10
2022-09-03T07:16:25.688Z,77.10
2022-09-03T07:18:53.771Z,77.00
2022-09-03T07:21:22.682Z,76.00
2022-09-03T07:23:53.854Z,75.70
2022-09-03T07:26:22.639Z,75.40
2022-09-03T07:28:51.194Z,75.70
2022-09-03T07:31:20.219Z,75.70
2022-09-03T07:33:48.301Z,75.90
2022-09-03T07:36:17.143Z,75.70
2022-09-03T07:38:45.763Z,75.90
2022-09-03T07:41:17.598Z,76.30
2022-09-03T07:43:55.210Z,76.70
2022-09-03T07:46:24.277Z,77.40
2022-09-03T07:48:52.802Z,78.00
2022-09-03T07:51:21.142Z,78.60
2022-09-03T07:53:50.169Z,79.40
2022-09-03T07:56:23.135Z,79.60
2022-09-03T07:58:51.151Z,80.20
2022-09-03T08:01:20.172Z,80.60
2022-09-03T08:03:48.848Z,81.00
2022-09-03T08:06:17.426Z,81.10
2022-09-03T08:08:46.153Z,81.40
2022-09-03T08:11:14.864Z,81.50
2022-09-03T08:13:45.261Z,81.40
2022-09-03T08:16:14.465Z,81.50
2022-09-03T08:18:42.573Z,81.60
2022-09-03T08:21:11.799Z,81.40
2022-09-03T08:23:40.056Z,81.50
2022-09-03T08:26:08.457Z,81.60
2022-09-03T08:28:37.219Z,81.70
2022-09-03T08:31:07.739Z,81.60
2022-09-03T08:33:38.389Z,81.80
2022-09-03T08:36:07.099Z,81.70
2022-09-03T08:38:35.767Z,81.40
2022-09-03T08:41:04.892Z,80.80
2022-09-03T08:43:35.562Z,80.50
2022-09-03T08:46:03.885Z,80.70
2022-09-03T08:48:34.255Z,81.10
2022-09-03T08:51:04.706Z,77.80
2022-09-03T08:53:38.601Z,76.20
2022-09-03T08:56:08.916Z,72.10
2022-09-03T08:58:38.301Z,73.00
2022-09-03T09:01:11.639Z,73.30
2022-09-03T09:03:44.904Z,70.60
2022-09-03T09:06:18.033Z,69.70
2022-09-03T09:08:49.462Z,69.00
2022-09-03T09:11:21.612Z,65.10
2022-09-03T09:13:52.914Z,62.20
2022-09-03T09:16:23.428Z,58.40
2022-09-03T09:19:01.526Z,56.90
2022-09-03T09:21:31.127Z,59.10
2022-09-03T09:24:00.826Z,62.20
2022-09-03T09:26:29.660Z,63.10
2022-09-03T09:28:59.642Z,63.70
2022-09-03T09:31:30.833Z,64.40
2022-09-03T09:34:06.724Z,63.80
2022-09-03T09:36:39.644Z,63.40
2022-09-03T09:39:09.648Z,63.60
2022-09-03T09:41:37.508Z,61.20
2022-09-03T09:44:06.281Z,59.90
2022-09-03T09:46:36.523Z,57.60
2022-09-03T09:49:20.064Z,56.20
2022-09-03T09:51:48.064Z,56.40
2022-09-03T09:54:19.192Z,56.00
2022-09-03T09:56:47.734Z,56.80
2022-09-03T09:59:15.950Z,56.80
2022-09-03T10:01:44.874Z,54.10
2022-09-03T10:04:22.857Z,54.90
2022-09-03T10:06:56.908Z,58.40
2022-09-03T10:09:26.743Z,62.70
2022-09-03T10:12:07.574Z,62.70
2022-09-03T10:14:37.271Z,64.90
2022-09-03T10:17:12.355Z,62.80
2022-09-03T10:20:07.444Z,61.50
2022-09-03T10:22:56.271Z,61.50
2022-09-03T10:25:27.535Z,62.00
2022-09-03T10:27:56.782Z,59.50
2022-09-03T10:30:29.492Z,58.60
2022-09-03T10:33:02.450Z,57.20
2022-09-03T10:35:33.709Z,56.60
2022-09-03T10:38:06.433Z,58.20
2022-09-03T10:40:38.021Z,56.70
2022-09-03T10:43:16.659Z,59.80
2022-09-03T10:45:49.670Z,58.10
2022-09-03T10:48:24.225Z,57.10
2022-09-03T10:50:55.041Z,56.30
2022-09-03T10:53:31.285Z,58.10
2022-09-03T10:56:01.489Z,58.50
2022-09-03T10:58:38.257Z,57.50
2022-09-03T11:01:15.060Z,58.80
2022-09-03T11:03:45.074Z,59.60
2022-09-03T11:06:16.781Z,57.70
2022-09-03T11:08:46.477Z,57.80
2022-09-03T11:11:20.026Z,55.90
2022-09-03T11:13:49.995Z,57.10
2022-09-03T11:16:19.999Z,57.30
2022-09-03T11:18:50.540Z,55.30
2022-09-03T11:21:23.058Z,50.80
2022-09-03T11:23:54.996Z,46.90
2022-09-03T11:26:26.310Z,42.30
2022-09-03T11:28:57.424Z,41.30
2022-09-03T11:31:27.920Z,43.80
2022-09-03T11:33:57.435Z,42.50
2022-09-03T11:36:29.801Z,41.80
2022-09-03T11:38:57.813Z,38.70
2022-09-03T11:41:27.066Z,36.90
2022-09-03T11:43:55.526Z,36.30
2022-09-03T11:46:30.742Z,33.10
2022-09-03T11:49:10.467Z,32.80
2022-09-03T11:51:42.148Z,33.50
2022-09-03T11:54:25.988Z,35.00
2022-09-03T11:57:06.798Z,34.10
2022-09-03T11:59:34.897Z,33.20
2022-09-03T12:02:05.642Z,34.10
2022-09-03T12:04:38.389Z,33.50
2022-09-03T12:07:20.261Z,34.40
2022-09-03T12:09:53.047Z,35.30
2022-09-03T12:12:30.956Z,35.60
2022-09-03T12:15:05.182Z,36.30
2022-09-03T12:17:35.442Z,37.50
2022-09-03T12:20:04.397Z,37.60
2022-09-03T12:22:39.288Z,37.20
2022-09-03T12:25:11.573Z,37.20
2022-09-03T12:27:41.914Z,35.50
2022-09-03T12:30:16.519Z,35.60
2022-09-03T12:32:46.592Z,36.40
2022-09-03T12:35:58.311Z,37.90
2022-09-03T12:38:08.422Z,38.00
2022-09-03T12:41:24.281Z,38.20
2022-09-03T12:43:49.657Z,39.80
2022-09-03T12:46:17.402Z,42.40
2022-09-03T12:49:29.196Z,44.60
2022-09-03T12:51:48.693Z,45.80
2022-09-03T12:54:19.777Z,46.10
2022-09-03T12:56:49.582Z,46.40
2022-09-03T12:59:19.583Z,46.70
2022-09-03T13:01:49.774Z,47.10
2022-09-03T13:04:19.925Z,46.30
2022-09-03T13:06:51.693Z,45.30
2022-09-03T13:09:24.359Z,44.80
2022-09-03T13:11:55.528Z,43.60
2022-09-03T13:14:23.862Z,41.30
2022-09-03T13:17:09.468Z,38.80
2022-09-03T13:19:41.875Z,37.00
2022-09-03T13:22:13.996Z,34.70
2022-09-03T13:24:53.520Z,34.40
2022-09-03T13:27:25.986Z,35.10
2022-09-03T13:30:02.135Z,38.20
2022-09-03T13:32:34.309Z,38.00
2022-09-03T13:35:05.555Z,36.90
2022-09-03T13:37:38.341Z,37.50
2022-09-03T13:40:16.066Z,37.40
2022-09-03T13:42:46.882Z,38.80
2022-09-03T13:45:30.998Z,38.90
2022-09-03T13:48:18.551Z,39.70
2022-09-03T13:50:49.811Z,40.70
2022-09-03T13:53:19.415Z,41.60
2022-09-03T13:55:54.337Z,42.90
2022-09-03T13:58:25.529Z,43.90
2022-09-03T14:01:06.245Z,44.20
2022-09-03T14:03:36.202Z,45.40
2022-09-03T14:06:10.616Z,45.80
2022-09-03T14:08:48.418Z,46.10
2022-09-03T14:11:26.128Z,46.30
2022-09-03T14:14:01.667Z,47.60
2022-09-03T14:16:33.024Z,48.30
2022-09-03T14:19:03.509Z,48.10
2022-09-03T14:21:34.264Z,49.40
2022-09-03T14:24:05.820Z,49.20
2022-09-03T14:26:39.367Z,50.10
2022-09-03T14:29:15.707Z,50.60
2022-09-03T14:31:53.407Z,48.60
2022-09-03T14:34:31.206Z,48.70
2022-09-03T14:37:04.811Z,48.20
2022-09-03T14:39:34.531Z,48.70
2022-09-03T14:42:23.827Z,48.30
2022-09-03T14:44:59.277Z,48.80
2022-09-03T14:47:35.344Z,49.00
2022-09-03T14:50:18.241Z,49.00
2022-09-03T14:52:53.424Z,49.90
2022-09-03T14:55:30.346Z,50.50
2022-09-03T14:58:09.447Z,51.10
2022-09-03T15:00:43.855Z,50.60
2022-09-03T15:03:35.513Z,48.90
2022-09-03T15:06:06.076Z,48.40
2022-09-03T15:08:39.911Z,47.90
2022-09-03T15:11:15.338Z,48.80
2022-09-03T15:13:47.849Z,49.10
2022-09-03T15:16:22.182Z,50.20
2022-09-03T15:18:58.630Z,50.80
2022-09-03T15:21:32.334Z,51.30
2022-09-03T15:24:07.726Z,51.00
2022-09-03T15:26:44.612Z,51.40
2022-09-03T15:29:22.538Z,52.90
2022-09-03T15:31:54.933Z,54.70
2022-09-03T15:34:33.697Z,56.00
2022-09-03T15:37:07.250Z,56.50
2022-09-03T15:39:36.429Z,57.10
2022-09-03T15:42:07.827Z,57.80
2022-09-03T15:44:39.961Z,58.70
2022-09-03T15:47:14.028Z,59.00
2022-09-03T15:49:48.492Z,60.00
2022-09-03T15:52:30.447Z,60.40
2022-09-03T15:55:02.445Z,61.20
2022-09-03T15:57:34.512Z,61.70
2022-09-03T16:00:07.472Z,62.20
2022-09-03T16:02:40.858Z,62.50
2022-09-03T16:05:13.946Z,62.70
2022-09-03T16:07:55.274Z,63.30
2022-09-03T16:10:32.360Z,63.20
2022-09-03T16:13:03.783Z,63.10
2022-09-03T16:15:35.354Z,63.10
2022-09-03T16:18:06.679Z,63.20
2022-09-03T16:20:37.479Z,63.30
2022-09-03T16:23:07.141Z,63.30
2022-09-03T16:25:38.634Z,63.40
2022-09-03T16:28:14.667Z,63.50
2022-09-03T16:30:50.102Z,63.60
2022-09-03T16:33:23.103Z,63.80
2022-09-03T16:35:56.299Z,64.00
2022-09-03T16:38:29.635Z,63.50
2022-09-03T16:40:59.295Z,64.10
2022-09-03T16:43:40.584Z,64.30
2022-09-03T16:46:18.569Z,64.70
2022-09-03T16:48:51.881Z,65.00
2022-09-03T16:51:23.857Z,65.40
2022-09-03T16:54:04.952Z,65.30
2022-09-03T16:56:43.224Z,64.70
2022-09-03T16:59:15.650Z,66.20
2022-09-03T17:01:56.801Z,67.00
2022-09-03T17:04:39.935Z,67.20
2022-09-03T17:07:13.824Z,67.50
2022-09-03T17:09:55.597Z,67.80
2022-09-03T17:12:29.256Z,67.80
2022-09-03T17:15:12.664Z,68.00
2022-09-03T17:17:54.649Z,68.40
2022-09-03T17:20:40.830Z,68.90
2022-09-03T17:23:13.587Z,69.20
2022-09-03T17:25:50.435Z,69.30
2022-09-03T17:28:25.180Z,69.20
2022-09-03T17:30:58.277Z,69.30
2022-09-03T17:33:45.574Z,69.60
2022-09-03T17:36:15.814Z,69.70
2022-09-03T17:38:58.916Z,69.80
2022-09-03T17:41:33.630Z,69.90
2022-09-03T17:44:06.452Z,70.10
2022-09-03T17:46:37.822Z,70.40
2022-09-03T17:49:09.520Z,70.70
2022-09-03T17:51:42.915Z,70.70
2022-09-03T17:54:16.320Z,70.90
2022-09-03T17:56:47.926Z,70.80
2022-09-03T17:59:21.400Z,70.70
2022-09-03T18:01:52.422Z,70.70
2022-09-03T18:04:30.971Z,71.20
2022-09-03T18:07:08.235Z,71.20
2022-09-03T18:09:39.045Z,71.60
2022-09-03T18:12:10.933Z,71.70
2022-09-03T18:14:41.816Z,71.90
2022-09-03T18:17:11.752Z,72.40
2022-09-03T18:20:03.365Z,72.50
2022-09-03T18:22:50.962Z,72.70
2022-09-03T18:25:38.056Z,73.10
2022-09-03T18:28:26.054Z,73.30
2022-09-03T18:31:12.509Z,73.40
2022-09-03T18:33:58.567Z,73.50
2022-09-03T18:36:45.649Z,73.70
2022-09-03T18:39:34.204Z,73.70
2022-09-03T18:42:22.932Z,73.70
2022-09-03T18:45:23.055Z,73.60
2022-09-03T18:48:19.574Z,73.60
2022-09-03T18:51:10.243Z,73.80
2022-09-03T18:54:03.562Z,74.00
2022-09-03T18:56:54.240Z,74.10
2022-09-03T18:59:51.545Z,74.30
2022-09-03T19:02:46.764Z,74.20
2022-09-03T19:05:35.580Z,74.80
2022-09-03T19:08:25.667Z,75.00
2022-09-03T19:11:14.017Z,75.40
2022-09-03T19:13:59.946Z,75.70
2022-09-03T19:16:50.960Z,75.70
2022-09-03T19:19:49.675Z,75.80
2022-09-03T19:22:41.128Z,75.80
2022-09-03T19:25:29.588Z,75.80
2022-09-03T19:28:21.906Z,76.10
2022-09-03T19:31:11.258Z,76.20
2022-09-03T19:34:01.877Z,76.20
2022-09-03T19:36:52.685Z,76.30
2022-09-03T19:39:47.465Z,76.20
2022-09-03T19:42:38.404Z,76.10
2022-09-03T19:45:30.566Z,76.20
2022-09-03T19:48:22.411Z,76.10
2022-09-03T19:51:15.049Z,76.00
2022-09-03T19:54:01.069Z,76.10
2022-09-03T19:56:47.854Z,76.30
2022-09-03T19:59:36.940Z,76.40
2022-09-03T20:02:23.999Z,76.70
2022-09-03T20:05:11.942Z,77.00
2022-09-03T20:07:58.036Z,77.10
2022-09-03T20:10:25.615Z,77.10
2022-09-03T20:12:58.060Z,77.30
2022-09-03T20:15:29.334Z,77.30
2022-09-03T20:18:03.227Z,77.40
2022-09-03T20:20:33.673Z,77.50
2022-09-03T20:23:04.570Z,77.50
2022-09-03T20:25:37.567Z,77.70
2022-09-03T20:28:12.009Z,77.90
2022-09-03T20:30:43.806Z,78.00
2022-09-03T20:33:22.955Z,77.90
2022-09-03T20:35:58.723Z,78.00
2022-09-03T20:38:34.436Z,77.80
2022-09-03T20:41:08.952Z,78.00
2022-09-03T20:43:44.238Z,78.10
2022-09-03T20:46:22.466Z,78.20
2022-09-03T20:49:01.270Z,78.30
2022-09-03T20:51:34.841Z,78.50
2022-09-03T20:54:09.534Z,78.60
2022-09-03T20:56:41.347Z,78.90
2022-09-03T20:59:12.020Z,79.00
2022-09-03T21:01:46.712Z,79.00
2022-09-03T21:04:22.732Z,79.10
2022-09-03T21:06:54.035Z,79.20
2022-09-03T21:09:29.022Z,79.30
2022-09-03T21:12:03.176Z,79.40
2022-09-03T21:14:35.381Z,79.40
2022-09-03T21:17:10.030Z,79.40
2022-09-03T21:19:56.387Z,79.30
2022-09-03T21:22:29.733Z,79.30
2022-09-03T21:24:59.662Z,79.30
2022-09-03T21:27:32.375Z,79.30
2022-09-03T21:30:02.081Z,79.30
2022-09-03T21:32:36.625Z,79.50
2022-09-03T21:35:09.863Z,80.00
2022-09-03T21:37:38.603Z,80.00
2022-09-03T21:40:08.238Z,80.10
2022-09-03T21:42:39.180Z,80.30
2022-09-03T21:45:09.940Z,80.40
2022-09-03T21:47:39.929Z,80.40
2022-09-03T21:50:17.303Z,80.70
2022-09-03T21:52:52.656Z,80.70
2022-09-03T21:55:22.209Z,80.70
2022-09-03T21:57:59.883Z,80.90
2022-09-03T22:00:32.832Z,80.80
2022-09-03T22:03:01.029Z,81.10
2022-09-03T22:05:34.088Z,81.00
2022-09-03T22:08:07.467Z,81.10
2022-09-03T22:10:39.740Z,81.00
2022-09-03T22:13:14.860Z,81.00
2022-09-03T22:15:43.761Z,81.00
2022-09-03T22:18:15.573Z,81.20
2022-09-03T22:20:51.381Z,81.20
2022-09-03T22:23:24.848Z,81.30
2022-09-03T22:25:58.882Z,81.30
2022-09-03T22:28:29.376Z,81.10
2022-09-03T22:31:03.392Z,81.20
2022-09-03T22:33:33.970Z,81.20
2022-09-03T22:36:10.127Z,81.20
2022-09-03T22:38:55.057Z,81.20
2022-09-03T22:41:30.339Z,81.30
2022-09-03T22:44:03.393Z,81.20
2022-09-03T22:46:34.660Z,81.40
2022-09-03T22:49:09.519Z,81.50
2022-09-03T22:51:42.916Z,81.60
2022-09-03T22:54:15.454Z,81.70
2022-09-03T22:56:43.357Z,81.60
2022-09-03T22:59:13.808Z,81.60
2022-09-03T23:01:44.548Z,81.70
2022-09-03T23:04:14.448Z,81.90
2022-09-03T23:06:50.985Z,81.70
2022-09-03T23:09:22.210Z,81.70
2022-09-03T23:11:52.525Z,81.80
2022-09-03T23:14:23.641Z,81.60
2022-09-03T23:16:53.084Z,81.60
2022-09-03T23:21:54.541Z,81.90
2022-09-03T23:24:29.659Z,81.80
2022-09-03T23:26:59.686Z,81.90
2022-09-03T23:29:29.833Z,81.90
2022-09-03T23:31:58.121Z,81.90
2022-09-03T23:34:26.376Z,82.00
2022-09-03T23:37:33.146Z,82.00
2022-09-03T23:40:08.956Z,82.00
2022-09-03T23:42:45.875Z,82.10
2022-09-03T23:45:19.773Z,82.30
2022-09-03T23:47:52.002Z,82.40
2022-09-03T23:50:26.382Z,82.50
2022-09-03T23:53:03.859Z,82.30
2022-09-03T23:55:38.406Z,82.50
2022-09-03T23:58:10.513Z,82.60
